createdAt,value
2023-03-22T00:02:05.854Z,-71
2023-03-22T00:04:32.732Z,-72
2023-03-22T00:06:59.341Z,-68
2023-03-22T00:09:26.040Z,-71
2023-03-22T00:11:52.631Z,-71
2023-03-22T00:14:19.457Z,-69
2023-03-22T00:16:46.468Z,-71
2023-03-22T00:19:16.513Z,-70
2023-03-22T00:21:43.413Z,-71
2023-03-22T00:24:09.907Z,-71
2023-03-22T00:26:36.393Z,-71
2023-03-22T00:29:02.905Z,-71
2023-03-22T00:31:29.486Z,-71
2023-03-22T00:33:56.246Z,-72
2023-03-22T00:36:22.884Z,-71
2023-03-22T00:38:49.345Z,-70
2023-03-22T00:41:18.136Z,-71
2023-03-22T00:43:46.516Z,-72
2023-03-22T00:46:14.768Z,-72
2023-03-22T00:48:41.831Z,-71
2023-03-22T00:51:09.488Z,-72
2023-03-22T00:53:37.052Z,-71
2023-03-22T00:56:05.660Z,-71
2023-03-22T00:58:32.931Z,-72
2023-03-22T01:00:59.522Z,-69
2023-03-22T01:03:26.071Z,-70
2023-03-22T01:05:57.408Z,-72
2023-03-22T01:08:24.512Z,-70
2023-03-22T01:10:51.271Z,-71
2023-03-22T01:13:18.508Z,-71
2023-03-22T01:15:45.505Z,-70
2023-03-22T01:18:12.373Z,-70
2023-03-22T01:20:39.230Z,-70
2023-03-22T01:23:06.274Z,-70
2023-03-22T01:25:32.860Z,-72
2023-03-22T01:27:59.406Z,-69
2023-03-22T01:30:26.040Z,-71
2023-03-22T01:32:52.597Z,-72
2023-03-22T01:35:19.530Z,-70
2023-03-22T01:37:46.521Z,-71
2023-03-22T01:40:14.958Z,-72
2023-03-22T01:42:41.608Z,-71
2023-03-22T01:45:14.116Z,-70
2023-03-22T01:47:45.744Z,-69
2023-03-22T01:50:12.541Z,-72
2023-03-22T01:52:40.678Z,-69
2023-03-22T01:55:09.397Z,-70
2023-03-22T01:57:39.331Z,-69
2023-03-22T02:00:10.888Z,-72
2023-03-22T02:02:37.559Z,-72
2023-03-22T02:05:04.674Z,-72
2023-03-22T02:07:31.867Z,-73
2023-03-22T02:09:59.571Z,-73
2023-03-22T02:12:38.761Z,-71
2023-03-22T02:15:25.691Z,-72
2023-03-22T02:18:30.433Z,-69
2023-03-22T02:21:40.668Z,-71
2023-03-22T02:24:33.018Z,-70
2023-03-22T02:27:18.499Z,-70
2023-03-22T02:30:16.286Z,-70
2023-03-22T02:32:42.720Z,-70
2023-03-22T02:35:36.651Z,-69
2023-03-22T02:38:18.024Z,-69
2023-03-22T02:40:49.909Z,-70
2023-03-22T02:43:41.628Z,-69
2023-03-22T02:46:25.055Z,-69
2023-03-22T02:49:14.416Z,-70
2023-03-22T02:51:43.644Z,-70
2023-03-22T02:54:18.528Z,-70
2023-03-22T02:56:54.075Z,-70
2023-03-22T02:59:23.646Z,-67
2023-03-22T03:01:57.184Z,-71
2023-03-22T03:04:42.064Z,-70
2023-03-22T03:07:12.249Z,-72
2023-03-22T03:09:41.807Z,-71
2023-03-22T03:12:23.461Z,-72
2023-03-22T03:14:50.331Z,-71
2023-03-22T03:17:29.261Z,-72
2023-03-22T03:20:24.329Z,-71
2023-03-22T03:23:08.790Z,-73
2023-03-22T03:25:43.351Z,-72
2023-03-22T03:28:10.128Z,-72
2023-03-22T03:30:48.103Z,-70
2023-03-22T03:33:19.781Z,-72
2023-03-22T03:35:54.649Z,-73
2023-03-22T03:38:25.912Z,-70
2023-03-22T03:40:58.577Z,-70
2023-03-22T03:43:28.097Z,-70
2023-03-22T03:45:55.480Z,-70
2023-03-22T03:48:28.089Z,-71
2023-03-22T03:50:57.453Z,-72
2023-03-22T03:53:24.360Z,-70
2023-03-22T03:55:51.138Z,-70
2023-03-22T03:58:17.653Z,-72
2023-03-22T04:00:46.376Z,-71
2023-03-22T04:03:14.338Z,-71
2023-03-22T04:05:41.407Z,-67
2023-03-22T04:08:08.664Z,-71
2023-03-22T04:10:35.288Z,-69
2023-03-22T04:13:01.947Z,-70
2023-03-22T04:15:28.489Z,-70
2023-03-22T04:17:55.298Z,-69
2023-03-22T04:20:21.938Z,-71
2023-03-22T04:22:49.098Z,-70
2023-03-22T04:25:18.528Z,-70
2023-03-22T04:27:51.290Z,-71
2023-03-22T04:30:22.553Z,-72
2023-03-22T04:32:49.556Z,-70
2023-03-22T04:35:16.346Z,-70
2023-03-22T04:37:43.170Z,-70
2023-03-22T04:40:15.983Z,-70
2023-03-22T04:42:43.895Z,-69
2023-03-22T04:45:12.004Z,-71
2023-03-22T04:47:38.884Z,-70
2023-03-22T04:50:07.740Z,-69
2023-03-22T04:52:34.274Z,-70
2023-03-22T04:55:01.404Z,-66
2023-03-22T04:57:27.883Z,-69
2023-03-22T04:59:54.389Z,-70
2023-03-22T05:02:20.937Z,-66
2023-03-22T05:04:47.529Z,-68
2023-03-22T05:07:14.114Z,-70
2023-03-22T05:09:40.767Z,-69
2023-03-22T05:12:07.593Z,-69
2023-03-22T05:14:34.115Z,-71
2023-03-22T05:17:00.683Z,-69
2023-03-22T05:19:27.666Z,-71
2023-03-22T05:21:58.441Z,-69
2023-03-22T05:24:27.439Z,-71
2023-03-22T05:26:54.043Z,-70
2023-03-22T05:29:21.493Z,-70
2023-03-22T05:31:48.573Z,-71
2023-03-22T05:36:40.938Z,-73
2023-03-22T05:39:08.758Z,-73
2023-03-22T05:41:36.745Z,-75
2023-03-22T05:44:04.509Z,-74
2023-03-22T05:46:31.706Z,-73
2023-03-22T05:48:58.209Z,-73
2023-03-22T05:51:25.947Z,-73
2023-03-22T05:53:53.810Z,-73
2023-03-22T05:56:24.356Z,-74
2023-03-22T05:58:51.801Z,-74
2023-03-22T06:01:20.724Z,-74
2023-03-22T06:03:48.562Z,-74
2023-03-22T06:06:15.879Z,-73
2023-03-22T06:08:42.830Z,-75
2023-03-22T06:11:09.681Z,-73
2023-03-22T06:13:37.423Z,-73
2023-03-22T06:16:05.482Z,-73
2023-03-22T06:18:33.061Z,-73
2023-03-22T06:21:00.155Z,-73
2023-03-22T06:23:27.002Z,-75
2023-03-22T06:25:53.568Z,-73
2023-03-22T06:28:20.172Z,-72
2023-03-22T06:30:46.726Z,-72
2023-03-22T06:33:13.826Z,-74
2023-03-22T06:35:40.293Z,-72
2023-03-22T06:38:06.933Z,-72
2023-03-22T06:40:34.754Z,-71
2023-03-22T06:43:05.177Z,-73
2023-03-22T06:45:33.634Z,-71
2023-03-22T06:48:01.077Z,-72
2023-03-22T06:50:28.957Z,-73
2023-03-22T06:52:56.141Z,-74
2023-03-22T06:55:22.812Z,-73
2023-03-22T06:57:49.274Z,-74
2023-03-22T07:00:16.690Z,-73
2023-03-22T07:02:43.167Z,-73
2023-03-22T07:05:09.752Z,-74
2023-03-22T07:07:36.350Z,-72
2023-03-22T07:10:02.971Z,-73
2023-03-22T07:12:29.455Z,-72
2023-03-22T07:14:56.038Z,-73
2023-03-22T07:17:22.486Z,-75
2023-03-22T07:19:49.179Z,-75
2023-03-22T07:22:15.854Z,-71
2023-03-22T07:24:55.640Z,-70
2023-03-22T07:27:23.850Z,-70
2023-03-22T07:29:50.367Z,-71
2023-03-22T07:32:17.021Z,-71
2023-03-22T07:34:43.773Z,-71
2023-03-22T07:37:10.352Z,-72
2023-03-22T07:39:37.131Z,-72
2023-03-22T07:42:03.800Z,-70
2023-03-22T07:44:30.818Z,-71
2023-03-22T07:46:57.393Z,-71
2023-03-22T07:49:24.104Z,-70
2023-03-22T07:51:50.914Z,-70
2023-03-22T07:54:32.111Z,-70
2023-03-22T07:56:59.319Z,-71
2023-03-22T07:59:26.296Z,-71
2023-03-22T08:01:52.855Z,-73
2023-03-22T08:04:21.140Z,-71
2023-03-22T08:06:47.638Z,-71
2023-03-22T08:09:14.124Z,-71
2023-03-22T08:11:40.625Z,-71
2023-03-22T08:14:07.610Z,-71
2023-03-22T08:16:34.203Z,-71
2023-03-22T08:19:01.008Z,-71
2023-03-22T08:21:28.249Z,-71
2023-03-22T08:23:54.768Z,-71
2023-03-22T08:26:22.167Z,-71
2023-03-22T08:28:48.648Z,-71
2023-03-22T08:31:17.486Z,-71
2023-03-22T08:33:44.446Z,-71
2023-03-22T08:36:14.076Z,-71
2023-03-22T08:38:42.506Z,-71
2023-03-22T08:41:09.202Z,-71
2023-03-22T08:43:35.691Z,-71
2023-03-22T08:46:02.488Z,-71
2023-03-22T08:48:30.935Z,-73
2023-03-22T08:50:58.101Z,-72
2023-03-22T08:53:24.589Z,-72
2023-03-22T08:55:51.541Z,-72
2023-03-22T08:58:20.032Z,-72
2023-03-22T09:00:49.467Z,-72
2023-03-22T09:03:17.333Z,-72
2023-03-22T09:05:43.979Z,-72
2023-03-22T09:08:18.574Z,-72
2023-03-22T09:10:52.557Z,-72
2023-03-22T09:13:19.771Z,-73
2023-03-22T09:15:46.453Z,-72
2023-03-22T09:18:13.477Z,-72
2023-03-22T09:20:40.776Z,-73
2023-03-22T09:23:07.732Z,-72
2023-03-22T09:25:34.369Z,-72
2023-03-22T09:28:01.330Z,-73
2023-03-22T09:30:27.856Z,-73
2023-03-22T09:32:54.477Z,-73
2023-03-22T09:35:21.966Z,-72
2023-03-22T09:37:49.538Z,-73
2023-03-22T09:40:17.806Z,-71
2023-03-22T09:42:48.227Z,-72
2023-03-22T09:45:30.020Z,-72
2023-03-22T09:47:59.030Z,-72
2023-03-22T09:50:30.012Z,-73
2023-03-22T09:52:57.007Z,-73
2023-03-22T09:55:29.551Z,-73
2023-03-22T09:58:07.999Z,-73
2023-03-22T10:00:34.556Z,-72
2023-03-22T10:03:02.141Z,-73
2023-03-22T10:05:53.172Z,-74
2023-03-22T10:08:46.660Z,-73
2023-03-22T10:11:41.123Z,-72
2023-03-22T10:14:23.590Z,-72
2023-03-22T10:16:56.491Z,-72
2023-03-22T10:19:37.010Z,-73
2023-03-22T10:22:06.050Z,-72
2023-03-22T10:24:38.400Z,-73
2023-03-22T10:27:15.044Z,-73
2023-03-22T10:29:46.908Z,-73
2023-03-22T10:32:19.823Z,-73
2023-03-22T10:34:46.906Z,-73
2023-03-22T10:37:21.070Z,-73
2023-03-22T10:39:56.408Z,-73
2023-03-22T10:42:29.803Z,-73
2023-03-22T10:45:01.527Z,-73
2023-03-22T10:47:38.487Z,-74
2023-03-22T10:50:09.352Z,-74
2023-03-22T10:52:58.037Z,-74
2023-03-22T10:55:25.458Z,-72
2023-03-22T10:58:01.067Z,-72
2023-03-22T11:00:28.897Z,-72
2023-03-22T11:02:59.600Z,-72
2023-03-22T11:05:29.706Z,-73
2023-03-22T11:07:58.888Z,-73
2023-03-22T11:10:28.502Z,-72
2023-03-22T11:13:07.154Z,-72
2023-03-22T11:15:36.421Z,-72
2023-03-22T11:18:07.294Z,-72
2023-03-22T11:20:34.913Z,-72
2023-03-22T11:23:04.954Z,-72
2023-03-22T11:25:35.295Z,-72
2023-03-22T11:28:04.833Z,-72
2023-03-22T11:30:34.084Z,-73
2023-03-22T11:33:00.872Z,-73
2023-03-22T11:35:30.396Z,-84
2023-03-22T11:37:56.959Z,-86
2023-03-22T11:40:26.631Z,-85
2023-03-22T11:43:03.839Z,-86
2023-03-22T11:45:35.664Z,-86
2023-03-22T11:48:08.849Z,-86
2023-03-22T11:50:39.139Z,-85
2023-03-22T11:53:12.067Z,-85
2023-03-22T11:55:39.218Z,-84
2023-03-22T11:58:07.207Z,-85
2023-03-22T12:00:37.763Z,-85
2023-03-22T12:03:19.066Z,-86
2023-03-22T12:05:49.399Z,-83
2023-03-22T12:08:45.372Z,-84
2023-03-22T12:11:21.106Z,-84
2023-03-22T12:13:54.568Z,-86
2023-03-22T12:16:26.561Z,-84
2023-03-22T12:19:14.222Z,-85
2023-03-22T12:21:41.759Z,-84
2023-03-22T12:24:22.625Z,-84
2023-03-22T12:26:52.901Z,-84
2023-03-22T12:29:20.260Z,-83
2023-03-22T12:32:01.453Z,-85
2023-03-22T12:34:43.957Z,-85
2023-03-22T12:37:17.814Z,-84
2023-03-22T12:39:52.178Z,-85
2023-03-22T12:42:29.294Z,-84
2023-03-22T12:45:05.580Z,-86
2023-03-22T12:47:41.834Z,-85
2023-03-22T12:50:19.739Z,-85
2023-03-22T12:52:56.654Z,-84
2023-03-22T12:55:27.956Z,-86
2023-03-22T12:57:54.957Z,-85
2023-03-22T13:00:51.286Z,-85
2023-03-22T13:03:18.236Z,-86
2023-03-22T13:05:50.756Z,-86
2023-03-22T13:08:21.914Z,-85
2023-03-22T13:11:03.896Z,-85
2023-03-22T13:13:42.207Z,-84
2023-03-22T13:16:11.856Z,-84
2023-03-22T13:18:58.337Z,-86
2023-03-22T13:21:33.591Z,-84
2023-03-22T13:24:06.515Z,-84
2023-03-22T13:26:37.232Z,-84
2023-03-22T13:29:32.717Z,-84
2023-03-22T13:32:06.149Z,-84
2023-03-22T13:34:44.290Z,-85
2023-03-22T13:37:25.650Z,-84
2023-03-22T13:39:52.334Z,-86
2023-03-22T13:42:22.512Z,-84
2023-03-22T13:45:01.860Z,-85
2023-03-22T13:47:47.588Z,-85
2023-03-22T13:50:29.644Z,-86
2023-03-22T13:53:05.012Z,-85
2023-03-22T13:55:48.087Z,-85
2023-03-22T13:58:38.875Z,-84
2023-03-22T14:01:23.926Z,-83
2023-03-22T14:03:51.117Z,-86
2023-03-22T14:06:28.826Z,-83
2023-03-22T14:09:11.170Z,-83
2023-03-22T14:11:48.809Z,-84
2023-03-22T14:14:24.626Z,-83
2023-03-22T14:16:58.964Z,-84
2023-03-22T14:19:32.851Z,-84
2023-03-22T14:52:47.463Z,-83
2023-03-22T14:55:20.504Z,-84
2023-03-22T14:57:53.417Z,-85
2023-03-22T15:00:22.363Z,-86
2023-03-22T15:02:56.467Z,-86
2023-03-22T15:05:26.636Z,-87
2023-03-22T15:08:17.334Z,-86
2023-03-22T15:10:45.333Z,-85
2023-03-22T15:13:12.953Z,-87
2023-03-22T15:15:43.302Z,-86
2023-03-22T15:18:14.656Z,-85
2023-03-22T15:20:42.281Z,-85
2023-03-22T15:23:19.960Z,-84
2023-03-22T15:25:49.487Z,-85
2023-03-22T15:28:21.129Z,-84
2023-03-22T15:30:51.442Z,-83
2023-03-22T15:33:27.911Z,-84
2023-03-22T15:35:56.591Z,-84
2023-03-22T15:38:46.963Z,-84
2023-03-22T15:41:21.323Z,-83
2023-03-22T15:43:48.580Z,-83
2023-03-22T15:46:19.019Z,-83
2023-03-22T15:49:19.287Z,-84
2023-03-22T15:51:46.653Z,-84
2023-03-22T15:54:21.940Z,-84
2023-03-22T15:56:49.743Z,-86
2023-03-22T15:59:25.220Z,-83
2023-03-22T16:01:51.882Z,-86
2023-03-22T16:04:18.905Z,-85
2023-03-22T16:06:46.003Z,-85
2023-03-22T16:09:13.253Z,-85
2023-03-22T16:11:42.674Z,-85
2023-03-22T16:14:12.655Z,-85
2023-03-22T16:16:39.497Z,-82
2023-03-22T16:19:06.199Z,-84
2023-03-22T16:21:34.104Z,-85
2023-03-22T16:24:02.220Z,-84
2023-03-22T16:26:29.693Z,-85
2023-03-22T16:28:56.731Z,-86
2023-03-22T16:31:24.005Z,-83
2023-03-22T16:33:51.430Z,-85
2023-03-22T16:36:23.499Z,-84
2023-03-22T16:38:50.989Z,-83
2023-03-22T16:41:28.627Z,-83
2023-03-22T16:43:58.309Z,-85
2023-03-22T16:46:27.192Z,-87
2023-03-22T16:48:53.845Z,-84
2023-03-22T16:51:30.807Z,-84
2023-03-22T16:53:59.187Z,-84
2023-03-22T16:56:30.541Z,-86
2023-03-22T16:58:59.810Z,-84
2023-03-22T17:01:26.596Z,-85
2023-03-22T17:03:56.124Z,-84
2023-03-22T17:06:26.223Z,-85
2023-03-22T17:08:55.314Z,-85
2023-03-22T17:11:28.808Z,-82
2023-03-22T17:14:03.375Z,-83
2023-03-22T17:16:32.892Z,-84
2023-03-22T17:18:59.535Z,-85
2023-03-22T17:21:26.224Z,-83
2023-03-22T17:23:52.924Z,-84
2023-03-22T17:26:19.547Z,-84
2023-03-22T17:28:46.466Z,-83
2023-03-22T17:31:15.825Z,-83
2023-03-22T17:33:42.625Z,-84
2023-03-22T17:36:13.100Z,-82
2023-03-22T17:38:45.928Z,-84
2023-03-22T17:41:26.533Z,-83
2023-03-22T17:43:53.132Z,-85
2023-03-22T17:48:49.348Z,-84
2023-03-22T17:51:16.279Z,-85
2023-03-22T17:54:33.905Z,-85
2023-03-22T17:56:57.570Z,-85
2023-03-22T17:59:16.116Z,-86
2023-03-22T18:01:42.931Z,-86
2023-03-22T18:04:09.754Z,-84
2023-03-22T18:06:36.632Z,-86
2023-03-22T18:09:04.448Z,-86
2023-03-22T18:11:31.041Z,-86
2023-03-22T18:14:10.737Z,-84
2023-03-22T18:16:53.127Z,-84
2023-03-22T18:21:56.717Z,-83
2023-03-22T18:24:27.046Z,-84
2023-03-22T18:27:11.063Z,-85
2023-03-22T18:29:38.237Z,-85
2023-03-22T18:32:17.281Z,-85
2023-03-22T18:34:45.590Z,-86
2023-03-22T18:37:13.817Z,-83
2023-03-22T18:40:17.621Z,-86
2023-03-22T18:42:41.020Z,-82
2023-03-22T18:45:17.056Z,-82
2023-03-22T18:47:44.094Z,-85
2023-03-22T18:50:13.267Z,-82
2023-03-22T18:53:12.208Z,-84
2023-03-22T18:55:29.894Z,-82
2023-03-22T18:58:02.916Z,-84
2023-03-22T19:00:29.587Z,-82
2023-03-22T19:02:57.204Z,-84
2023-03-22T19:05:23.879Z,-83
2023-03-22T19:08:05.224Z,-83
2023-03-22T19:10:40.424Z,-84
2023-03-22T19:13:07.856Z,-86
2023-03-22T19:15:44.993Z,-84
2023-03-22T19:18:15.443Z,-87
2023-03-22T19:20:42.083Z,-87
2023-03-22T19:23:09.049Z,-86
2023-03-22T19:25:35.806Z,-87
2023-03-22T19:28:03.409Z,-85
2023-03-22T19:30:30.569Z,-87
2023-03-22T19:33:24.296Z,-86
2023-03-22T19:35:53.850Z,-84
2023-03-22T19:38:21.516Z,-86
2023-03-22T19:41:35.038Z,-83
2023-03-22T19:43:36.642Z,-86
2023-03-22T19:46:03.940Z,-84
2023-03-22T19:48:31.119Z,-83
2023-03-22T19:51:00.857Z,-84
2023-03-22T19:54:11.184Z,-82
2023-03-22T19:56:14.158Z,-84
2023-03-22T19:58:41.233Z,-84
2023-03-22T20:01:10.317Z,-84
2023-03-22T20:03:38.943Z,-85
2023-03-22T20:06:11.336Z,-85
2023-03-22T20:08:39.326Z,-88
2023-03-22T20:11:07.026Z,-85
2023-03-22T20:13:33.986Z,-87
2023-03-22T20:16:00.699Z,-88
2023-03-22T20:18:27.383Z,-87
2023-03-22T20:20:54.208Z,-87
2023-03-22T20:23:22.333Z,-87
2023-03-22T20:25:54.971Z,-85
2023-03-22T20:28:23.386Z,-85
2023-03-22T20:30:51.402Z,-86
2023-03-22T20:33:18.726Z,-86
2023-03-22T20:35:47.283Z,-84
2023-03-22T20:38:14.147Z,-86
2023-03-22T20:40:41.148Z,-86
2023-03-22T20:43:08.047Z,-87
2023-03-22T20:45:34.748Z,-87
2023-03-22T20:48:02.950Z,-86
2023-03-22T20:50:29.707Z,-88
2023-03-22T20:52:56.436Z,-86
2023-03-22T20:55:23.445Z,-87
2023-03-22T20:57:50.323Z,-85
2023-03-22T21:00:18.820Z,-85
2023-03-22T21:02:46.462Z,-86
2023-03-22T21:05:16.134Z,-85
2023-03-22T21:07:44.097Z,-84
2023-03-22T21:10:12.706Z,-85
2023-03-22T21:12:40.316Z,-85
2023-03-22T21:15:09.711Z,-84
2023-03-22T21:17:36.874Z,-83
2023-03-22T21:20:05.047Z,-82
2023-03-22T21:22:32.393Z,-85
2023-03-22T21:24:59.915Z,-85
2023-03-22T21:27:30.346Z,-87
2023-03-22T21:29:57.391Z,-85
2023-03-22T21:32:24.251Z,-84
2023-03-22T21:34:50.899Z,-87
2023-03-22T21:37:18.207Z,-86
2023-03-22T21:39:45.156Z,-86
2023-03-22T21:42:11.957Z,-86
2023-03-22T21:44:38.692Z,-86
2023-03-22T21:47:06.352Z,-87
2023-03-22T21:49:33.561Z,-87
2023-03-22T21:52:05.185Z,-87
2023-03-22T21:54:31.905Z,-86
2023-03-22T21:56:59.102Z,-88
2023-03-22T21:59:28.104Z,-86
2023-03-22T22:01:55.806Z,-85
2023-03-22T22:04:22.811Z,-86
2023-03-22T22:06:49.954Z,-87
2023-03-22T22:09:19.617Z,-88
2023-03-22T22:11:46.199Z,-85
2023-03-22T22:14:12.968Z,-85
2023-03-22T22:16:39.644Z,-85
2023-03-22T22:19:06.472Z,-87
2023-03-22T22:21:34.586Z,-87
2023-03-22T22:24:01.740Z,-87
2023-03-22T22:26:29.011Z,-86
2023-03-22T22:29:00.137Z,-88
2023-03-22T22:31:30.393Z,-88
2023-03-22T22:33:59.003Z,-88
2023-03-22T22:36:30.002Z,-88
2023-03-22T22:38:57.507Z,-87
2023-03-22T22:41:24.334Z,-85
2023-03-22T22:43:51.085Z,-86
2023-03-22T22:46:17.696Z,-86
2023-03-22T22:48:45.934Z,-86
2023-03-22T22:51:19.938Z,-85
2023-03-22T22:53:50.560Z,-87
2023-03-22T22:56:20.401Z,-87
2023-03-22T22:58:47.702Z,-87
2023-03-22T23:01:17.141Z,-86
2023-03-22T23:03:43.988Z,-86
2023-03-22T23:06:20.487Z,-86
2023-03-22T23:08:49.933Z,-87
2023-03-22T23:11:20.206Z,-86
2023-03-22T23:13:47.396Z,-86
2023-03-22T23:16:16.839Z,-86
2023-03-22T23:18:54.400Z,-86
2023-03-22T23:21:22.080Z,-86
2023-03-22T23:23:50.119Z,-86
2023-03-22T23:26:22.420Z,-86
2023-03-22T23:28:58.030Z,-85
2023-03-22T23:31:30.525Z,-86
2023-03-22T23:34:03.263Z,-86
2023-03-22T23:36:31.618Z,-86
2023-03-22T23:39:01.901Z,-86
2023-03-22T23:41:33.592Z,-87
2023-03-22T23:44:02.044Z,-86
2023-03-22T23:46:30.005Z,-88
2023-03-22T23:48:59.746Z,-86
2023-03-22T23:51:28.041Z,-87
2023-03-22T23:53:54.935Z,-87
2023-03-22T23:56:22.955Z,-86
2023-03-22T23:58:52.103Z,-86
